Aérodrome :
LOGIN :

S'inscrire | Disclaimer

   EN    FR    IT 

 










Légende :    VFR   VFR Marginal   IFR   IFR Intensif   IFR Très Intensif
Visi : 
Plafond : 
>= 8 km
>= 3000ft
5 à 8 km
1000 à 3000 ft
1500m à 5 km
500 à 1000 ft
800 à 1500m
200 à 500 ft
< 800m
< 200 ft
Symboles :   Orages  Brouillard  Fortes neiges  Fortes précipitations  Vent > 20 kt
SIGMETs :   Divers  Orages  Givrage  Turbulence  Onde Orograph.  Cendres Volcan.







- Altitude de l'aérodrome : 156 ft
- Code IATA : MLN


GEML - Melilla

DERNIER METAR :
  • 160530Z 00000KT 9999 -RA FEW020 SCT034 18/16 Q1012

METARs EXPIRÉS :
  • 160500Z 02003KT 350V060 9999 FEW034 18/16 Q1012
  • 160430Z 15003KT 080V200 9999 -RA FEW035 18/16 Q1011
  • 160400Z 00000KT CAVOK 18/16 Q1012
  • 160330Z AUTO 18003KT CAVOK 17/16 Q1012
  • 160300Z AUTO 20003KT 160V240 CAVOK 17/16 Q1012

TAF TAF GEML
Valide du 16 à 03h jusqu'au 17 à 03h UTC


160200Z 1603/1703 VRB04KT 9999 SCT030 TX23/1614Z TN16/1605Z
PROB40
TEMPO 1603/1612 3000 RA BKN014
BECMG 1609/1612 28010KT
PROB30
TEMPO 1612/1616 28015G25KT
Pas de NOTAMs connus pour ce terrain.



MET'MAP, la Météo Aéronautique d'un coup d'oeil ! - Copyright ORBIFLY Décembre 2007 - Disclaimer

ORBIFLY MET'MAP TEAM :

Programmation & Développement : Alexandra Zaïnal
Conception & Développement : Baudouin d'Aumeries
Co-Programmation & Développement : Marc-Olivier Méhu
Soutien technique & logistique : Manuel Goepfert

Contact : metmap@orbifly.com




SOURCES & CREDITS :

   NOAA